National Weather Service Raw Text Product

Displaying AFOS PIL: TAFMCW Received: 2018-12-06 15:38 UTC


541 
FTUS43 KDMX 061538 AAA
TAFMCW
TAF AMD
KMCW 061538Z 0616/0712 32010KT P6SM BKN015
     FM061900 33010KT P6SM SCT020
     FM070300 VRB04KT P6SM SKC=